sensor_id;sensor_type;location;lat;lon;timestamp;P1;durP1;ratioP1;P2;durP2;ratioP2
29202;SDS011;16245;51.170;4.884;2023-03-13T00:01:44;20.08;;;3.95;;
29202;SDS011;16245;51.170;4.884;2023-03-13T00:04:12;25.92;;;4.55;;
29202;SDS011;16245;51.170;4.884;2023-03-13T00:06:39;22.67;;;4.75;;
29202;SDS011;16245;51.170;4.884;2023-03-13T00:09:06;17.55;;;4.32;;
29202;SDS011;16245;51.170;4.884;2023-03-13T00:11:34;14.95;;;4.32;;
29202;SDS011;16245;51.170;4.884;2023-03-13T00:14:00;24.85;;;5.32;;
29202;SDS011;16245;51.170;4.884;2023-03-13T00:16:28;17.60;;;4.53;;
29202;SDS011;16245;51.170;4.884;2023-03-13T00:18:54;17.50;;;4.15;;
29202;SDS011;16245;51.170;4.884;2023-03-13T00:21:22;21.92;;;5.20;;
29202;SDS011;16245;51.170;4.884;2023-03-13T00:23:49;18.92;;;4.97;;
29202;SDS011;16245;51.170;4.884;2023-03-13T00:26:19;17.75;;;3.67;;
29202;SDS011;16245;51.170;4.884;2023-03-13T00:28:47;19.00;;;4.50;;
29202;SDS011;16245;51.170;4.884;2023-03-13T00:33:42;15.93;;;4.35;;
29202;SDS011;16245;51.170;4.884;2023-03-13T00:36:10;16.10;;;4.15;;
29202;SDS011;16245;51.170;4.884;2023-03-13T00:38:41;10.80;;;3.83;;
29202;SDS011;16245;51.170;4.884;2023-03-13T00:41:07;17.42;;;4.25;;
29202;SDS011;16245;51.170;4.884;2023-03-13T00:43:38;16.90;;;3.90;;
29202;SDS011;16245;51.170;4.884;2023-03-13T00:46:05;16.40;;;4.35;;
29202;SDS011;16245;51.170;4.884;2023-03-13T00:48:31;14.13;;;3.47;;
29202;SDS011;16245;51.170;4.884;2023-03-13T00:50:58;15.30;;;3.72;;
29202;SDS011;16245;51.170;4.884;2023-03-13T00:53:24;14.57;;;3.88;;
29202;SDS011;16245;51.170;4.884;2023-03-13T00:58:19;12.75;;;3.83;;
29202;SDS011;16245;51.170;4.884;2023-03-13T01:00:45;15.80;;;4.55;;
29202;SDS011;16245;51.170;4.884;2023-03-13T01:03:11;12.82;;;3.83;;
29202;SDS011;16245;51.170;4.884;2023-03-13T01:05:37;13.65;;;4.28;;
29202;SDS011;16245;51.170;4.884;2023-03-13T01:08:02;12.55;;;4.05;;
29202;SDS011;16245;51.170;4.884;2023-03-13T01:10:28;12.23;;;4.00;;
29202;SDS011;16245;51.170;4.884;2023-03-13T01:12:54;15.95;;;3.90;;
29202;SDS011;16245;51.170;4.884;2023-03-13T01:15:19;11.30;;;3.53;;
29202;SDS011;16245;51.170;4.884;2023-03-13T01:17:45;10.80;;;3.58;;
29202;SDS011;16245;51.170;4.884;2023-03-13T01:20:11;12.98;;;4.10;;
29202;SDS011;16245;51.170;4.884;2023-03-13T01:22:37;9.48;;;3.25;;
29202;SDS011;16245;51.170;4.884;2023-03-13T01:25:03;11.05;;;3.25;;
29202;SDS011;16245;51.170;4.884;2023-03-13T01:27:30;6.40;;;2.40;;
29202;SDS011;16245;51.170;4.884;2023-03-13T01:29:55;9.02;;;3.15;;
29202;SDS011;16245;51.170;4.884;2023-03-13T01:32:21;10.95;;;3.10;;
29202;SDS011;16245;51.170;4.884;2023-03-13T01:34:47;6.00;;;2.85;;
29202;SDS011;16245;51.170;4.884;2023-03-13T01:37:12;6.90;;;2.97;;
29202;SDS011;16245;51.170;4.884;2023-03-13T01:39:38;12.52;;;3.03;;
29202;SDS011;16245;51.170;4.884;2023-03-13T01:42:04;7.32;;;2.42;;
29202;SDS011;16245;51.170;4.884;2023-03-13T01:44:46;6.28;;;2.60;;
29202;SDS011;16245;51.170;4.884;2023-03-13T01:47:14;9.27;;;2.97;;
29202;SDS011;16245;51.170;4.884;2023-03-13T01:49:40;9.88;;;3.08;;
29202;SDS011;16245;51.170;4.884;2023-03-13T01:52:12;8.32;;;3.28;;
29202;SDS011;16245;51.170;4.884;2023-03-13T01:57:34;7.20;;;3.10;;
29202;SDS011;16245;51.170;4.884;2023-03-13T02:00:10;8.60;;;3.58;;
29202;SDS011;16245;51.170;4.884;2023-03-13T02:02:42;10.55;;;3.70;;
29202;SDS011;16245;51.170;4.884;2023-03-13T02:05:11;5.78;;;3.55;;
29202;SDS011;16245;51.170;4.884;2023-03-13T02:07:40;13.82;;;4.72;;
29202;SDS011;16245;51.170;4.884;2023-03-13T02:10:10;6.25;;;3.97;;
29202;SDS011;16245;51.170;4.884;2023-03-13T02:12:38;7.82;;;4.20;;
29202;SDS011;16245;51.170;4.884;2023-03-13T02:15:09;10.20;;;4.70;;
29202;SDS011;16245;51.170;4.884;2023-03-13T02:17:38;5.65;;;4.38;;
29202;SDS011;16245;51.170;4.884;2023-03-13T02:20:05;6.60;;;4.25;;
29202;SDS011;16245;51.170;4.884;2023-03-13T02:22:34;9.50;;;4.47;;
29202;SDS011;16245;51.170;4.884;2023-03-13T02:27:51;7.15;;;4.47;;
29202;SDS011;16245;51.170;4.884;2023-03-13T02:30:19;6.82;;;4.85;;
29202;SDS011;16245;51.170;4.884;2023-03-13T02:32:45;7.28;;;4.85;;
29202;SDS011;16245;51.170;4.884;2023-03-13T02:35:11;8.00;;;4.78;;
29202;SDS011;16245;51.170;4.884;2023-03-13T02:37:41;7.57;;;4.93;;
29202;SDS011;16245;51.170;4.884;2023-03-13T02:40:09;7.43;;;5.00;;
29202;SDS011;16245;51.170;4.884;2023-03-13T02:42:38;9.70;;;5.32;;
29202;SDS011;16245;51.170;4.884;2023-03-13T02:45:06;5.68;;;4.45;;
29202;SDS011;16245;51.170;4.884;2023-03-13T02:47:33;4.65;;;4.07;;
29202;SDS011;16245;51.170;4.884;2023-03-13T02:49:58;8.13;;;4.57;;
29202;SDS011;16245;51.170;4.884;2023-03-13T02:52:31;9.40;;;4.05;;
29202;SDS011;16245;51.170;4.884;2023-03-13T02:55:07;7.00;;;4.70;;
29202;SDS011;16245;51.170;4.884;2023-03-13T02:57:38;7.38;;;4.82;;
29202;SDS011;16245;51.170;4.884;2023-03-13T03:00:05;7.93;;;4.40;;
29202;SDS011;16245;51.170;4.884;2023-03-13T03:02:31;10.90;;;4.20;;
29202;SDS011;16245;51.170;4.884;2023-03-13T03:04:57;6.60;;;4.57;;
29202;SDS011;16245;51.170;4.884;2023-03-13T03:07:23;5.57;;;4.35;;
29202;SDS011;16245;51.170;4.884;2023-03-13T03:09:48;7.53;;;5.20;;
29202;SDS011;16245;51.170;4.884;2023-03-13T03:12:14;6.15;;;4.45;;
29202;SDS011;16245;51.170;4.884;2023-03-13T03:14:40;5.45;;;4.22;;
29202;SDS011;16245;51.170;4.884;2023-03-13T03:17:14;9.70;;;5.07;;
29202;SDS011;16245;51.170;4.884;2023-03-13T03:19:40;7.38;;;4.32;;
29202;SDS011;16245;51.170;4.884;2023-03-13T03:22:06;8.70;;;4.80;;
29202;SDS011;16245;51.170;4.884;2023-03-13T03:24:34;6.60;;;4.75;;
29202;SDS011;16245;51.170;4.884;2023-03-13T03:27:00;6.55;;;4.32;;
29202;SDS011;16245;51.170;4.884;2023-03-13T03:29:26;6.45;;;3.95;;
29202;SDS011;16245;51.170;4.884;2023-03-13T03:31:52;6.35;;;4.10;;
29202;SDS011;16245;51.170;4.884;2023-03-13T03:34:23;7.00;;;4.68;;
29202;SDS011;16245;51.170;4.884;2023-03-13T03:36:49;7.72;;;3.92;;
29202;SDS011;16245;51.170;4.884;2023-03-13T03:39:14;5.55;;;3.75;;
29202;SDS011;16245;51.170;4.884;2023-03-13T03:41:40;5.43;;;3.65;;
29202;SDS011;16245;51.170;4.884;2023-03-13T03:44:06;6.20;;;4.00;;
29202;SDS011;16245;51.170;4.884;2023-03-13T03:46:31;6.18;;;4.20;;
29202;SDS011;16245;51.170;4.884;2023-03-13T03:48:57;5.65;;;3.55;;
29202;SDS011;16245;51.170;4.884;2023-03-13T03:51:23;3.97;;;3.20;;
29202;SDS011;16245;51.170;4.884;2023-03-13T03:53:48;5.55;;;3.22;;
29202;SDS011;16245;51.170;4.884;2023-03-13T03:56:14;6.22;;;3.63;;
29202;SDS011;16245;51.170;4.884;2023-03-13T03:58:42;3.30;;;3.00;;
29202;SDS011;16245;51.170;4.884;2023-03-13T04:01:08;5.18;;;3.67;;
29202;SDS011;16245;51.170;4.884;2023-03-13T04:03:34;5.90;;;3.08;;
29202;SDS011;16245;51.170;4.884;2023-03-13T04:05:59;3.17;;;2.63;;
29202;SDS011;16245;51.170;4.884;2023-03-13T04:08:28;4.63;;;2.65;;
29202;SDS011;16245;51.170;4.884;2023-03-13T04:10:54;3.05;;;2.65;;
29202;SDS011;16245;51.170;4.884;2023-03-13T04:13:19;4.90;;;2.88;;
29202;SDS011;16245;51.170;4.884;2023-03-13T04:15:45;5.40;;;2.97;;
29202;SDS011;16245;51.170;4.884;2023-03-13T04:18:12;4.22;;;2.67;;
29202;SDS011;16245;51.170;4.884;2023-03-13T04:20:38;5.30;;;3.22;;
29202;SDS011;16245;51.170;4.884;2023-03-13T04:23:03;6.03;;;2.90;;
29202;SDS011;16245;51.170;4.884;2023-03-13T04:25:29;2.58;;;2.38;;
29202;SDS011;16245;51.170;4.884;2023-03-13T04:27:55;3.75;;;2.35;;
29202;SDS011;16245;51.170;4.884;2023-03-13T04:30:20;2.95;;;2.53;;
29202;SDS011;16245;51.170;4.884;2023-03-13T04:32:46;4.05;;;3.05;;
29202;SDS011;16245;51.170;4.884;2023-03-13T04:35:12;7.93;;;2.85;;
29202;SDS011;16245;51.170;4.884;2023-03-13T04:37:38;5.78;;;2.75;;
29202;SDS011;16245;51.170;4.884;2023-03-13T04:40:03;5.25;;;2.85;;
29202;SDS011;16245;51.170;4.884;2023-03-13T04:42:30;6.28;;;3.03;;
29202;SDS011;16245;51.170;4.884;2023-03-13T04:44:55;5.40;;;2.45;;
29202;SDS011;16245;51.170;4.884;2023-03-13T04:47:21;6.22;;;2.50;;
29202;SDS011;16245;51.170;4.884;2023-03-13T04:49:47;6.38;;;2.70;;
29202;SDS011;16245;51.170;4.884;2023-03-13T04:52:12;10.10;;;3.00;;
29202;SDS011;16245;51.170;4.884;2023-03-13T04:54:38;5.78;;;2.78;;
29202;SDS011;16245;51.170;4.884;2023-03-13T04:57:04;6.97;;;2.75;;
29202;SDS011;16245;51.170;4.884;2023-03-13T04:59:29;4.03;;;2.53;;
29202;SDS011;16245;51.170;4.884;2023-03-13T05:01:55;6.03;;;2.72;;
29202;SDS011;16245;51.170;4.884;2023-03-13T05:04:21;3.58;;;2.53;;
29202;SDS011;16245;51.170;4.884;2023-03-13T05:06:47;6.55;;;2.50;;
29202;SDS011;16245;51.170;4.884;2023-03-13T05:09:12;5.63;;;2.28;;
29202;SDS011;16245;51.170;4.884;2023-03-13T05:11:38;5.93;;;2.30;;
29202;SDS011;16245;51.170;4.884;2023-03-13T05:14:06;5.57;;;2.75;;
29202;SDS011;16245;51.170;4.884;2023-03-13T05:16:34;6.32;;;2.80;;
29202;SDS011;16245;51.170;4.884;2023-03-13T05:19:00;5.68;;;2.70;;
29202;SDS011;16245;51.170;4.884;2023-03-13T05:21:26;7.90;;;3.15;;
29202;SDS011;16245;51.170;4.884;2023-03-13T05:23:52;6.45;;;2.90;;
29202;SDS011;16245;51.170;4.884;2023-03-13T05:26:17;5.57;;;2.88;;
29202;SDS011;16245;51.170;4.884;2023-03-13T05:28:43;9.75;;;2.80;;
29202;SDS011;16245;51.170;4.884;2023-03-13T05:31:09;7.90;;;2.47;;
29202;SDS011;16245;51.170;4.884;2023-03-13T05:33:34;8.68;;;2.50;;
29202;SDS011;16245;51.170;4.884;2023-03-13T05:36:00;7.95;;;3.10;;
29202;SDS011;16245;51.170;4.884;2023-03-13T05:38:25;9.45;;;2.95;;
29202;SDS011;16245;51.170;4.884;2023-03-13T05:40:51;7.40;;;3.00;;
29202;SDS011;16245;51.170;4.884;2023-03-13T05:43:17;10.57;;;2.80;;
29202;SDS011;16245;51.170;4.884;2023-03-13T05:45:42;7.38;;;3.42;;
29202;SDS011;16245;51.170;4.884;2023-03-13T05:48:08;5.57;;;2.33;;
29202;SDS011;16245;51.170;4.884;2023-03-13T05:50:34;7.63;;;3.08;;
29202;SDS011;16245;51.170;4.884;2023-03-13T05:52:59;9.23;;;3.22;;
29202;SDS011;16245;51.170;4.884;2023-03-13T05:55:25;7.68;;;3.55;;
29202;SDS011;16245;51.170;4.884;2023-03-13T05:57:51;10.52;;;3.15;;
29202;SDS011;16245;51.170;4.884;2023-03-13T06:00:17;7.30;;;2.58;;
29202;SDS011;16245;51.170;4.884;2023-03-13T06:02:43;5.82;;;2.60;;
29202;SDS011;16245;51.170;4.884;2023-03-13T06:05:09;6.10;;;2.65;;
29202;SDS011;16245;51.170;4.884;2023-03-13T06:07:35;7.13;;;2.70;;
29202;SDS011;16245;51.170;4.884;2023-03-13T06:10:00;9.23;;;3.17;;
29202;SDS011;16245;51.170;4.884;2023-03-13T06:12:27;9.93;;;3.25;;
29202;SDS011;16245;51.170;4.884;2023-03-13T06:14:52;9.50;;;2.90;;
29202;SDS011;16245;51.170;4.884;2023-03-13T06:17:18;9.05;;;3.10;;
29202;SDS011;16245;51.170;4.884;2023-03-13T06:19:45;9.25;;;3.13;;
29202;SDS011;16245;51.170;4.884;2023-03-13T06:22:11;7.72;;;2.78;;
29202;SDS011;16245;51.170;4.884;2023-03-13T06:24:36;7.07;;;3.22;;
29202;SDS011;16245;51.170;4.884;2023-03-13T06:27:02;8.98;;;2.53;;
29202;SDS011;16245;51.170;4.884;2023-03-13T06:29:28;8.30;;;3.30;;
29202;SDS011;16245;51.170;4.884;2023-03-13T06:31:54;7.35;;;2.50;;
29202;SDS011;16245;51.170;4.884;2023-03-13T06:34:19;11.35;;;2.83;;
29202;SDS011;16245;51.170;4.884;2023-03-13T06:36:45;5.57;;;2.72;;
29202;SDS011;16245;51.170;4.884;2023-03-13T06:39:11;7.20;;;2.78;;
29202;SDS011;16245;51.170;4.884;2023-03-13T06:41:37;5.78;;;2.75;;
29202;SDS011;16245;51.170;4.884;2023-03-13T06:44:03;9.77;;;3.55;;
29202;SDS011;16245;51.170;4.884;2023-03-13T06:46:29;7.50;;;2.90;;
29202;SDS011;16245;51.170;4.884;2023-03-13T06:48:56;11.57;;;3.03;;
29202;SDS011;16245;51.170;4.884;2023-03-13T06:51:22;9.30;;;3.58;;
29202;SDS011;16245;51.170;4.884;2023-03-13T06:53:50;9.27;;;3.30;;
29202;SDS011;16245;51.170;4.884;2023-03-13T06:56:16;10.85;;;2.88;;
29202;SDS011;16245;51.170;4.884;2023-03-13T06:58:45;9.50;;;3.13;;
29202;SDS011;16245;51.170;4.884;2023-03-13T07:01:12;9.65;;;3.67;;
29202;SDS011;16245;51.170;4.884;2023-03-13T07:03:39;9.93;;;3.25;;
29202;SDS011;16245;51.170;4.884;2023-03-13T07:06:08;8.15;;;3.10;;
29202;SDS011;16245;51.170;4.884;2023-03-13T07:08:35;14.00;;;4.25;;
29202;SDS011;16245;51.170;4.884;2023-03-13T07:11:02;7.50;;;2.88;;
29202;SDS011;16245;51.170;4.884;2023-03-13T07:13:29;12.02;;;3.15;;
29202;SDS011;16245;51.170;4.884;2023-03-13T07:15:58;9.40;;;3.33;;
29202;SDS011;16245;51.170;4.884;2023-03-13T07:18:25;12.00;;;3.05;;
29202;SDS011;16245;51.170;4.884;2023-03-13T07:20:51;10.70;;;2.72;;
29202;SDS011;16245;51.170;4.884;2023-03-13T07:23:18;10.32;;;3.65;;
29202;SDS011;16245;51.170;4.884;2023-03-13T07:25:51;15.40;;;3.72;;
29202;SDS011;16245;51.170;4.884;2023-03-13T07:28:18;8.52;;;2.83;;
29202;SDS011;16245;51.170;4.884;2023-03-13T07:30:44;10.77;;;3.30;;
29202;SDS011;16245;51.170;4.884;2023-03-13T07:33:09;10.52;;;2.47;;
29202;SDS011;16245;51.170;4.884;2023-03-13T07:35:35;10.50;;;3.97;;
29202;SDS011;16245;51.170;4.884;2023-03-13T07:38:01;10.95;;;3.40;;
29202;SDS011;16245;51.170;4.884;2023-03-13T07:40:26;12.25;;;2.88;;
29202;SDS011;16245;51.170;4.884;2023-03-13T07:42:52;5.63;;;2.97;;
29202;SDS011;16245;51.170;4.884;2023-03-13T07:45:17;8.60;;;3.05;;
29202;SDS011;16245;51.170;4.884;2023-03-13T07:47:43;8.15;;;2.80;;
29202;SDS011;16245;51.170;4.884;2023-03-13T07:50:09;7.07;;;2.63;;
29202;SDS011;16245;51.170;4.884;2023-03-13T07:52:35;9.90;;;2.80;;
29202;SDS011;16245;51.170;4.884;2023-03-13T07:55:00;8.25;;;2.78;;
29202;SDS011;16245;51.170;4.884;2023-03-13T07:57:26;11.75;;;3.72;;
29202;SDS011;16245;51.170;4.884;2023-03-13T07:59:52;9.52;;;3.10;;
29202;SDS011;16245;51.170;4.884;2023-03-13T08:02:17;10.77;;;2.78;;
29202;SDS011;16245;51.170;4.884;2023-03-13T08:04:43;8.00;;;2.88;;
29202;SDS011;16245;51.170;4.884;2023-03-13T08:07:09;9.00;;;2.75;;
29202;SDS011;16245;51.170;4.884;2023-03-13T08:09:36;10.55;;;3.13;;
29202;SDS011;16245;51.170;4.884;2023-03-13T08:12:01;6.70;;;2.80;;
29202;SDS011;16245;51.170;4.884;2023-03-13T08:14:27;11.07;;;3.00;;
29202;SDS011;16245;51.170;4.884;2023-03-13T08:16:53;7.97;;;2.88;;
29202;SDS011;16245;51.170;4.884;2023-03-13T08:19:19;9.95;;;2.85;;
29202;SDS011;16245;51.170;4.884;2023-03-13T08:21:44;9.48;;;3.33;;
29202;SDS011;16245;51.170;4.884;2023-03-13T08:24:10;9.68;;;3.22;;
29202;SDS011;16245;51.170;4.884;2023-03-13T08:26:37;8.20;;;2.78;;
29202;SDS011;16245;51.170;4.884;2023-03-13T08:29:05;5.68;;;2.88;;
29202;SDS011;16245;51.170;4.884;2023-03-13T08:31:34;8.18;;;2.80;;
29202;SDS011;16245;51.170;4.884;2023-03-13T08:34:07;8.00;;;2.97;;
29202;SDS011;16245;51.170;4.884;2023-03-13T08:36:33;9.02;;;2.35;;
29202;SDS011;16245;51.170;4.884;2023-03-13T08:39:02;7.90;;;2.35;;
29202;SDS011;16245;51.170;4.884;2023-03-13T08:41:35;5.70;;;2.13;;
29202;SDS011;16245;51.170;4.884;2023-03-13T08:44:02;8.32;;;3.05;;
29202;SDS011;16245;51.170;4.884;2023-03-13T08:46:29;5.28;;;2.38;;
29202;SDS011;16245;51.170;4.884;2023-03-13T08:48:56;5.70;;;2.25;;
29202;SDS011;16245;51.170;4.884;2023-03-13T08:51:23;7.20;;;2.50;;
29202;SDS011;16245;51.170;4.884;2023-03-13T08:53:51;6.68;;;2.88;;
29202;SDS011;16245;51.170;4.884;2023-03-13T08:56:20;7.65;;;2.47;;
29202;SDS011;16245;51.170;4.884;2023-03-13T08:58:50;6.72;;;2.17;;
29202;SDS011;16245;51.170;4.884;2023-03-13T09:01:17;4.85;;;2.65;;
29202;SDS011;16245;51.170;4.884;2023-03-13T09:03:44;5.88;;;2.30;;
29202;SDS011;16245;51.170;4.884;2023-03-13T09:06:10;7.53;;;2.75;;
29202;SDS011;16245;51.170;4.884;2023-03-13T09:08:37;6.53;;;2.78;;
29202;SDS011;16245;51.170;4.884;2023-03-13T09:11:07;4.30;;;2.50;;
29202;SDS011;16245;51.170;4.884;2023-03-13T09:13:41;6.60;;;2.10;;
29202;SDS011;16245;51.170;4.884;2023-03-13T09:16:18;6.45;;;2.33;;
29202;SDS011;16245;51.170;4.884;2023-03-13T09:18:46;6.80;;;2.63;;
29202;SDS011;16245;51.170;4.884;2023-03-13T09:21:13;6.93;;;2.25;;
29202;SDS011;16245;51.170;4.884;2023-03-13T09:23:40;5.13;;;1.90;;
29202;SDS011;16245;51.170;4.884;2023-03-13T09:26:06;2.72;;;1.95;;
29202;SDS011;16245;51.170;4.884;2023-03-13T09:28:33;3.70;;;1.75;;
29202;SDS011;16245;51.170;4.884;2023-03-13T09:31:10;7.07;;;2.53;;
29202;SDS011;16245;51.170;4.884;2023-03-13T09:33:38;2.80;;;1.73;;
29202;SDS011;16245;51.170;4.884;2023-03-13T09:36:05;4.35;;;2.15;;
29202;SDS011;16245;51.170;4.884;2023-03-13T09:38:34;4.70;;;2.10;;
29202;SDS011;16245;51.170;4.884;2023-03-13T09:41:10;6.65;;;2.17;;
29202;SDS011;16245;51.170;4.884;2023-03-13T09:43:42;7.10;;;2.78;;
29202;SDS011;16245;51.170;4.884;2023-03-13T09:46:38;5.10;;;2.03;;
29202;SDS011;16245;51.170;4.884;2023-03-13T09:49:19;4.63;;;2.15;;
29202;SDS011;16245;51.170;4.884;2023-03-13T09:51:48;2.80;;;1.83;;
29202;SDS011;16245;51.170;4.884;2023-03-13T09:54:21;4.93;;;1.83;;
29202;SDS011;16245;51.170;4.884;2023-03-13T09:56:52;4.18;;;2.08;;
29202;SDS011;16245;51.170;4.884;2023-03-13T10:01:57;4.18;;;1.92;;
29202;SDS011;16245;51.170;4.884;2023-03-13T10:04:28;6.15;;;1.92;;
29202;SDS011;16245;51.170;4.884;2023-03-13T10:07:18;3.17;;;1.80;;
29202;SDS011;16245;51.170;4.884;2023-03-13T10:09:45;4.22;;;1.48;;
29202;SDS011;16245;51.170;4.884;2023-03-13T10:17:32;3.67;;;1.92;;
29202;SDS011;16245;51.170;4.884;2023-03-13T10:20:22;4.65;;;2.08;;
29202;SDS011;16245;51.170;4.884;2023-03-13T10:22:53;4.45;;;1.40;;
29202;SDS011;16245;51.170;4.884;2023-03-13T10:25:42;6.60;;;1.50;;
29202;SDS011;16245;51.170;4.884;2023-03-13T10:28:15;3.03;;;1.55;;
29202;SDS011;16245;51.170;4.884;2023-03-13T10:31:05;1.90;;;1.35;;
29202;SDS011;16245;51.170;4.884;2023-03-13T10:33:45;5.00;;;1.33;;
29202;SDS011;16245;51.170;4.884;2023-03-13T10:36:11;3.70;;;1.60;;
29202;SDS011;16245;51.170;4.884;2023-03-13T10:41:18;4.72;;;1.80;;
29202;SDS011;16245;51.170;4.884;2023-03-13T10:43:49;5.18;;;1.52;;
29202;SDS011;16245;51.170;4.884;2023-03-13T10:46:23;3.50;;;1.38;;
29202;SDS011;16245;51.170;4.884;2023-03-13T10:48:54;4.90;;;1.52;;
29202;SDS011;16245;51.170;4.884;2023-03-13T10:51:24;2.92;;;1.60;;
29202;SDS011;16245;51.170;4.884;2023-03-13T10:54:23;4.70;;;1.60;;
29202;SDS011;16245;51.170;4.884;2023-03-13T10:59:43;5.65;;;1.70;;
29202;SDS011;16245;51.170;4.884;2023-03-13T11:02:20;3.40;;;1.70;;
29202;SDS011;16245;51.170;4.884;2023-03-13T11:04:49;5.43;;;1.70;;
29202;SDS011;16245;51.170;4.884;2023-03-13T11:07:27;5.80;;;1.40;;
29202;SDS011;16245;51.170;4.884;2023-03-13T11:09:57;6.93;;;1.83;;
29202;SDS011;16245;51.170;4.884;2023-03-13T11:12:28;5.60;;;1.67;;
29202;SDS011;16245;51.170;4.884;2023-03-13T11:14:58;2.08;;;1.45;;
29202;SDS011;16245;51.170;4.884;2023-03-13T11:17:36;3.83;;;1.60;;
29202;SDS011;16245;51.170;4.884;2023-03-13T11:33:04;2.97;;;1.38;;
29202;SDS011;16245;51.170;4.884;2023-03-13T11:38:35;6.40;;;3.20;;
29202;SDS011;16245;51.170;4.884;2023-03-13T11:43:56;3.60;;;1.48;;
29202;SDS011;16245;51.170;4.884;2023-03-13T11:57:27;4.80;;;1.90;;
29202;SDS011;16245;51.170;4.884;2023-03-13T12:02:46;3.72;;;1.52;;
29202;SDS011;16245;51.170;4.884;2023-03-13T12:05:14;5.75;;;1.70;;
29202;SDS011;16245;51.170;4.884;2023-03-13T12:07:54;6.00;;;1.17;;
29202;SDS011;16245;51.170;4.884;2023-03-13T12:10:32;1.95;;;1.30;;
29202;SDS011;16245;51.170;4.884;2023-03-13T12:15:46;3.67;;;1.75;;
29202;SDS011;16245;51.170;4.884;2023-03-13T12:18:37;5.38;;;1.40;;
29202;SDS011;16245;51.170;4.884;2023-03-13T12:29:15;6.03;;;1.70;;
29202;SDS011;16245;51.170;4.884;2023-03-13T12:35:14;3.95;;;1.40;;
29202;SDS011;16245;51.170;4.884;2023-03-13T12:43:32;3.92;;;1.20;;
29202;SDS011;16245;51.170;4.884;2023-03-13T12:59:37;1.60;;;1.08;;
29202;SDS011;16245;51.170;4.884;2023-03-13T13:02:38;2.28;;;1.35;;
29202;SDS011;16245;51.170;4.884;2023-03-13T13:04:58;2.10;;;1.30;;
29202;SDS011;16245;51.170;4.884;2023-03-13T13:07:28;6.25;;;1.52;;
29202;SDS011;16245;51.170;4.884;2023-03-13T13:12:34;4.50;;;1.20;;
29202;SDS011;16245;51.170;4.884;2023-03-13T13:39:40;2.55;;;1.38;;
29202;SDS011;16245;51.170;4.884;2023-03-13T13:45:00;5.00;;;1.70;;
29202;SDS011;16245;51.170;4.884;2023-03-13T13:47:38;4.47;;;1.27;;
29202;SDS011;16245;51.170;4.884;2023-03-13T13:50:15;2.92;;;1.02;;
29202;SDS011;16245;51.170;4.884;2023-03-13T13:52:47;4.60;;;1.30;;
29202;SDS011;16245;51.170;4.884;2023-03-13T13:55:57;5.25;;;1.33;;
29202;SDS011;16245;51.170;4.884;2023-03-13T13:58:04;9.45;;;2.20;;
29202;SDS011;16245;51.170;4.884;2023-03-13T14:00:45;4.03;;;1.45;;
29202;SDS011;16245;51.170;4.884;2023-03-13T14:03:19;3.75;;;1.50;;
29202;SDS011;16245;51.170;4.884;2023-03-13T14:05:48;3.67;;;1.23;;
29202;SDS011;16245;51.170;4.884;2023-03-13T14:08:29;5.70;;;1.33;;
29202;SDS011;16245;51.170;4.884;2023-03-13T14:11:04;6.05;;;1.50;;
29202;SDS011;16245;51.170;4.884;2023-03-13T14:13:40;3.47;;;1.30;;
29202;SDS011;16245;51.170;4.884;2023-03-13T14:16:25;3.17;;;1.33;;
29202;SDS011;16245;51.170;4.884;2023-03-13T14:18:51;5.18;;;1.25;;
29202;SDS011;16245;51.170;4.884;2023-03-13T14:21:21;4.38;;;1.40;;
29202;SDS011;16245;51.170;4.884;2023-03-13T14:23:48;3.88;;;1.35;;
29202;SDS011;16245;51.170;4.884;2023-03-13T14:26:15;5.45;;;1.60;;
29202;SDS011;16245;51.170;4.884;2023-03-13T14:28:58;4.07;;;1.60;;
29202;SDS011;16245;51.170;4.884;2023-03-13T14:31:29;5.03;;;1.30;;
29202;SDS011;16245;51.170;4.884;2023-03-13T14:33:58;4.57;;;1.27;;
29202;SDS011;16245;51.170;4.884;2023-03-13T14:36:25;5.80;;;1.50;;
29202;SDS011;16245;51.170;4.884;2023-03-13T14:38:52;6.15;;;1.23;;
29202;SDS011;16245;51.170;4.884;2023-03-13T14:41:35;5.68;;;1.17;;
29202;SDS011;16245;51.170;4.884;2023-03-13T14:44:05;4.90;;;1.70;;
29202;SDS011;16245;51.170;4.884;2023-03-13T14:46:39;3.72;;;1.45;;
29202;SDS011;16245;51.170;4.884;2023-03-13T14:49:07;5.22;;;1.48;;
29202;SDS011;16245;51.170;4.884;2023-03-13T14:51:44;3.15;;;1.67;;
29202;SDS011;16245;51.170;4.884;2023-03-13T14:54:24;3.05;;;1.48;;
29202;SDS011;16245;51.170;4.884;2023-03-13T14:57:01;4.97;;;1.60;;
29202;SDS011;16245;51.170;4.884;2023-03-13T14:59:33;5.70;;;1.63;;
29202;SDS011;16245;51.170;4.884;2023-03-13T15:02:00;7.57;;;1.70;;
29202;SDS011;16245;51.170;4.884;2023-03-13T15:10:20;3.55;;;1.20;;
29202;SDS011;16245;51.170;4.884;2023-03-13T15:12:51;6.72;;;1.60;;
29202;SDS011;16245;51.170;4.884;2023-03-13T15:15:18;5.97;;;1.55;;
29202;SDS011;16245;51.170;4.884;2023-03-13T15:17:44;6.57;;;1.98;;
29202;SDS011;16245;51.170;4.884;2023-03-13T15:20:11;7.65;;;1.33;;
29202;SDS011;16245;51.170;4.884;2023-03-13T15:22:39;6.28;;;1.60;;
29202;SDS011;16245;51.170;4.884;2023-03-13T15:25:16;6.05;;;1.95;;
29202;SDS011;16245;51.170;4.884;2023-03-13T15:27:47;6.15;;;1.70;;
29202;SDS011;16245;51.170;4.884;2023-03-13T15:30:17;6.07;;;2.03;;
29202;SDS011;16245;51.170;4.884;2023-03-13T15:32:47;7.35;;;2.22;;
29202;SDS011;16245;51.170;4.884;2023-03-13T15:37:56;5.57;;;2.03;;
29202;SDS011;16245;51.170;4.884;2023-03-13T15:40:23;6.07;;;2.00;;
29202;SDS011;16245;51.170;4.884;2023-03-13T15:42:49;8.82;;;2.50;;
29202;SDS011;16245;51.170;4.884;2023-03-13T15:45:16;7.18;;;2.00;;
29202;SDS011;16245;51.170;4.884;2023-03-13T15:47:41;9.45;;;2.28;;
29202;SDS011;16245;51.170;4.884;2023-03-13T15:50:17;5.55;;;1.60;;
29202;SDS011;16245;51.170;4.884;2023-03-13T15:52:44;6.72;;;1.90;;
29202;SDS011;16245;51.170;4.884;2023-03-13T15:55:10;5.20;;;1.80;;
29202;SDS011;16245;51.170;4.884;2023-03-13T15:57:37;6.07;;;2.17;;
29202;SDS011;16245;51.170;4.884;2023-03-13T16:00:14;7.90;;;2.17;;
29202;SDS011;16245;51.170;4.884;2023-03-13T16:02:48;8.23;;;1.90;;
29202;SDS011;16245;51.170;4.884;2023-03-13T16:05:14;8.90;;;2.08;;
29202;SDS011;16245;51.170;4.884;2023-03-13T16:07:40;7.13;;;2.03;;
29202;SDS011;16245;51.170;4.884;2023-03-13T16:10:17;9.75;;;2.10;;
29202;SDS011;16245;51.170;4.884;2023-03-13T16:12:48;7.15;;;2.20;;
29202;SDS011;16245;51.170;4.884;2023-03-13T16:15:13;7.95;;;2.40;;
29202;SDS011;16245;51.170;4.884;2023-03-13T16:17:39;8.57;;;2.05;;
29202;SDS011;16245;51.170;4.884;2023-03-13T16:20:18;8.18;;;2.60;;
29202;SDS011;16245;51.170;4.884;2023-03-13T16:22:45;10.02;;;2.65;;
29202;SDS011;16245;51.170;4.884;2023-03-13T16:25:12;5.95;;;2.05;;
29202;SDS011;16245;51.170;4.884;2023-03-13T16:27:38;6.38;;;1.80;;
29202;SDS011;16245;51.170;4.884;2023-03-13T16:30:11;8.32;;;2.05;;
29202;SDS011;16245;51.170;4.884;2023-03-13T16:32:37;7.38;;;2.40;;
29202;SDS011;16245;51.170;4.884;2023-03-13T16:35:03;9.13;;;2.47;;
29202;SDS011;16245;51.170;4.884;2023-03-13T16:37:29;7.93;;;2.33;;
29202;SDS011;16245;51.170;4.884;2023-03-13T16:39:56;7.63;;;2.53;;
29202;SDS011;16245;51.170;4.884;2023-03-13T16:42:21;5.88;;;2.13;;
29202;SDS011;16245;51.170;4.884;2023-03-13T16:44:47;7.57;;;2.65;;
29202;SDS011;16245;51.170;4.884;2023-03-13T16:47:20;5.72;;;1.77;;
29202;SDS011;16245;51.170;4.884;2023-03-13T16:49:49;5.32;;;1.92;;
29202;SDS011;16245;51.170;4.884;2023-03-13T16:52:16;5.25;;;2.05;;
29202;SDS011;16245;51.170;4.884;2023-03-13T16:54:42;8.90;;;2.33;;
29202;SDS011;16245;51.170;4.884;2023-03-13T16:57:11;9.77;;;2.30;;
29202;SDS011;16245;51.170;4.884;2023-03-13T16:59:39;8.90;;;2.17;;
29202;SDS011;16245;51.170;4.884;2023-03-13T17:02:09;4.78;;;1.80;;
29202;SDS011;16245;51.170;4.884;2023-03-13T17:04:38;7.53;;;2.55;;